sensor_id;sensor_type;location;lat;lon;timestamp;pressure;altitude;pressure_sealevel;temperature;humidity
51083;BME280;37131;42.694;23.350;2023-06-10T00:01:38;95087.91;;;16.67;100.00
51083;BME280;37131;42.694;23.350;2023-06-10T00:04:04;95085.81;;;16.64;100.00
51083;BME280;37131;42.694;23.350;2023-06-10T00:06:29;95090.06;;;16.50;100.00
51083;BME280;37131;42.694;23.350;2023-06-10T00:09:07;95090.88;;;16.40;100.00
51083;BME280;37131;42.694;23.350;2023-06-10T00:11:39;95089.53;;;16.27;100.00
51083;BME280;37131;42.694;23.350;2023-06-10T00:14:05;95077.44;;;16.26;100.00
51083;BME280;37131;42.694;23.350;2023-06-10T00:16:30;95075.59;;;16.32;100.00
51083;BME280;37131;42.694;23.350;2023-06-10T00:18:55;95080.06;;;16.26;100.00
51083;BME280;37131;42.694;23.350;2023-06-10T00:21:25;95080.59;;;16.34;100.00
51083;BME280;37131;42.694;23.350;2023-06-10T00:23:51;95079.78;;;16.38;100.00
51083;BME280;37131;42.694;23.350;2023-06-10T00:26:16;95071.13;;;16.33;100.00
51083;BME280;37131;42.694;23.350;2023-06-10T00:28:41;95079.00;;;16.33;100.00
51083;BME280;37131;42.694;23.350;2023-06-10T00:31:07;95074.00;;;16.41;100.00
51083;BME280;37131;42.694;23.350;2023-06-10T00:33:32;95082.69;;;16.47;100.00
51083;BME280;37131;42.694;23.350;2023-06-10T00:35:57;95081.88;;;16.52;100.00
51083;BME280;37131;42.694;23.350;2023-06-10T00:38:22;95082.38;;;16.69;100.00
51083;BME280;37131;42.694;23.350;2023-06-10T00:40:48;95089.78;;;16.52;100.00
51083;BME280;37131;42.694;23.350;2023-06-10T00:43:13;95092.41;;;16.52;100.00
51083;BME280;37131;42.694;23.350;2023-06-10T00:45:39;95087.13;;;16.62;100.00
51083;BME280;37131;42.694;23.350;2023-06-10T00:48:04;95088.72;;;16.73;100.00
51083;BME280;37131;42.694;23.350;2023-06-10T00:50:30;95080.56;;;16.59;100.00
51083;BME280;37131;42.694;23.350;2023-06-10T00:52:56;95087.44;;;16.55;100.00
51083;BME280;37131;42.694;23.350;2023-06-10T00:55:21;95086.38;;;16.51;100.00
51083;BME280;37131;42.694;23.350;2023-06-10T00:57:46;95093.72;;;16.59;100.00
51083;BME280;37131;42.694;23.350;2023-06-10T01:03:16;95088.50;;;16.49;100.00
51083;BME280;37131;42.694;23.350;2023-06-10T01:05:42;95092.16;;;16.48;100.00
51083;BME280;37131;42.694;23.350;2023-06-10T01:08:19;95096.88;;;16.46;100.00
51083;BME280;37131;42.694;23.350;2023-06-10T01:10:51;95096.88;;;16.46;100.00
51083;BME280;37131;42.694;23.350;2023-06-10T01:13:18;95091.09;;;16.54;100.00
51083;BME280;37131;42.694;23.350;2023-06-10T01:15:49;95090.84;;;16.56;100.00
51083;BME280;37131;42.694;23.350;2023-06-10T01:18:14;95095.84;;;16.52;100.00
51083;BME280;37131;42.694;23.350;2023-06-10T01:20:40;95103.22;;;16.55;100.00
51083;BME280;37131;42.694;23.350;2023-06-10T01:23:06;95102.13;;;16.56;100.00
51083;BME280;37131;42.694;23.350;2023-06-10T01:25:32;95096.38;;;16.54;100.00
51083;BME280;37131;42.694;23.350;2023-06-10T01:30:24;95088.69;;;16.68;100.00
51083;BME280;37131;42.694;23.350;2023-06-10T01:32:54;95083.19;;;16.75;100.00
51083;BME280;37131;42.694;23.350;2023-06-10T01:35:20;95087.38;;;16.71;100.00
51083;BME280;37131;42.694;23.350;2023-06-10T01:37:47;95091.34;;;16.73;100.00
51083;BME280;37131;42.694;23.350;2023-06-10T01:40:13;95094.47;;;16.86;100.00
51083;BME280;37131;42.694;23.350;2023-06-10T01:42:39;95087.38;;;16.81;100.00
51083;BME280;37131;42.694;23.350;2023-06-10T01:45:05;95087.38;;;16.81;100.00
51083;BME280;37131;42.694;23.350;2023-06-10T01:47:30;95089.50;;;16.79;100.00
51083;BME280;37131;42.694;23.350;2023-06-10T01:49:56;95080.00;;;16.83;100.00
51083;BME280;37131;42.694;23.350;2023-06-10T01:52:21;95073.41;;;16.86;100.00
51083;BME280;37131;42.694;23.350;2023-06-10T01:54:47;95070.78;;;16.75;100.00
51083;BME280;37131;42.694;23.350;2023-06-10T01:57:12;95070.81;;;16.70;100.00
51083;BME280;37131;42.694;23.350;2023-06-10T01:59:37;95070.28;;;16.73;100.00
51083;BME280;37131;42.694;23.350;2023-06-10T02:02:03;95058.97;;;16.73;100.00
51083;BME280;37131;42.694;23.350;2023-06-10T02:04:29;95070.28;;;16.73;100.00
51083;BME280;37131;42.694;23.350;2023-06-10T02:06:54;95067.38;;;16.75;100.00
51083;BME280;37131;42.694;23.350;2023-06-10T02:09:21;95067.34;;;16.80;100.00
51083;BME280;37131;42.694;23.350;2023-06-10T02:11:46;95064.72;;;16.85;100.00
51083;BME280;37131;42.694;23.350;2023-06-10T02:14:11;95071.56;;;16.91;100.00
51083;BME280;37131;42.694;23.350;2023-06-10T02:16:36;95075.78;;;16.87;100.00
51083;BME280;37131;42.694;23.350;2023-06-10T02:19:02;95071.56;;;16.81;100.00
51083;BME280;37131;42.694;23.350;2023-06-10T02:21:30;95063.16;;;16.79;100.00
51083;BME280;37131;42.694;23.350;2023-06-10T02:23:56;95065.00;;;16.73;100.00
51083;BME280;37131;42.694;23.350;2023-06-10T02:26:21;95066.84;;;16.78;100.00
51083;BME280;37131;42.694;23.350;2023-06-10T02:28:47;95057.63;;;16.75;100.00
51083;BME280;37131;42.694;23.350;2023-06-10T02:31:13;95048.69;;;16.76;100.00
51083;BME280;37131;42.694;23.350;2023-06-10T02:33:38;95047.09;;;16.75;100.00
51083;BME280;37131;42.694;23.350;2023-06-10T02:36:05;95045.25;;;16.81;100.00
51083;BME280;37131;42.694;23.350;2023-06-10T02:38:30;95051.03;;;16.88;100.00
51083;BME280;37131;42.694;23.350;2023-06-10T02:40:55;95056.56;;;16.87;100.00
51083;BME280;37131;42.694;23.350;2023-06-10T02:43:21;95052.09;;;16.82;100.00
51083;BME280;37131;42.694;23.350;2023-06-10T02:45:46;95043.38;;;16.81;100.00
51083;BME280;37131;42.694;23.350;2023-06-10T02:48:11;95038.94;;;16.82;100.00
51083;BME280;37131;42.694;23.350;2023-06-10T02:50:36;95038.38;;;16.80;100.00
51083;BME280;37131;42.694;23.350;2023-06-10T02:53:03;95035.75;;;16.85;100.00
51083;BME280;37131;42.694;23.350;2023-06-10T02:55:29;95032.84;;;16.87;100.00
51083;BME280;37131;42.694;23.350;2023-06-10T02:57:55;95034.47;;;16.88;100.00
51083;BME280;37131;42.694;23.350;2023-06-10T03:00:20;95041.56;;;16.87;100.00
51083;BME280;37131;42.694;23.350;2023-06-10T03:02:46;95039.44;;;16.84;100.00
51083;BME280;37131;42.694;23.350;2023-06-10T03:05:11;95038.88;;;16.97;100.00
51083;BME280;37131;42.694;23.350;2023-06-10T03:07:38;95038.66;;;16.94;100.00
51083;BME280;37131;42.694;23.350;2023-06-10T03:10:03;95044.16;;;16.97;100.00
51083;BME280;37131;42.694;23.350;2023-06-10T03:12:29;95046.78;;;17.03;100.00
51083;BME280;37131;42.694;23.350;2023-06-10T03:14:54;95047.84;;;17.01;100.00
51083;BME280;37131;42.694;23.350;2023-06-10T03:17:19;95043.38;;;16.97;100.00
51083;BME280;37131;42.694;23.350;2023-06-10T03:19:45;95047.56;;;17.03;100.00
51083;BME280;37131;42.694;23.350;2023-06-10T03:22:11;95050.22;;;16.98;100.00
51083;BME280;37131;42.694;23.350;2023-06-10T03:24:36;95058.41;;;16.91;100.00
51083;BME280;37131;42.694;23.350;2023-06-10T03:27:06;95063.38;;;17.03;100.00
51083;BME280;37131;42.694;23.350;2023-06-10T03:29:31;95067.09;;;16.97;100.00
51083;BME280;37131;42.694;23.350;2023-06-10T03:31:57;95076.06;;;16.80;100.00
51083;BME280;37131;42.694;23.350;2023-06-10T03:34:22;95070.53;;;16.66;100.00
51083;BME280;37131;42.694;23.350;2023-06-10T03:36:48;95083.22;;;16.54;100.00
51083;BME280;37131;42.694;23.350;2023-06-10T03:39:13;95084.53;;;16.41;100.00
51083;BME280;37131;42.694;23.350;2023-06-10T03:41:39;95084.25;;;16.43;100.00
51083;BME280;37131;42.694;23.350;2023-06-10T03:44:04;95074.00;;;16.41;100.00
51083;BME280;37131;42.694;23.350;2023-06-10T03:46:29;95076.91;;;16.29;100.00
51083;BME280;37131;42.694;23.350;2023-06-10T03:48:54;95074.00;;;16.21;100.00
51083;BME280;37131;42.694;23.350;2023-06-10T03:51:20;95071.66;;;16.24;100.00
51083;BME280;37131;42.694;23.350;2023-06-10T03:53:46;95075.34;;;16.18;100.00
51083;BME280;37131;42.694;23.350;2023-06-10T03:56:11;95075.63;;;16.17;100.00
51083;BME280;37131;42.694;23.350;2023-06-10T03:58:36;95069.28;;;16.18;100.00
51083;BME280;37131;42.694;23.350;2023-06-10T04:01:02;95069.81;;;16.14;100.00
51083;BME280;37131;42.694;23.350;2023-06-10T04:03:27;95086.91;;;16.12;100.00
51083;BME280;37131;42.694;23.350;2023-06-10T04:05:52;95081.38;;;16.08;100.00
51083;BME280;37131;42.694;23.350;2023-06-10T04:08:17;95082.16;;;15.93;100.00
51083;BME280;37131;42.694;23.350;2023-06-10T04:10:43;95080.59;;;15.98;100.00
51083;BME280;37131;42.694;23.350;2023-06-10T04:13:08;95085.84;;;16.03;100.00
51083;BME280;37131;42.694;23.350;2023-06-10T04:15:34;95085.06;;;15.97;100.00
51083;BME280;37131;42.694;23.350;2023-06-10T04:18:00;95084.25;;;16.02;100.00
51083;BME280;37131;42.694;23.350;2023-06-10T04:20:26;95087.97;;;16.01;100.00
51083;BME280;37131;42.694;23.350;2023-06-10T04:22:51;95093.19;;;15.95;100.00
51083;BME280;37131;42.694;23.350;2023-06-10T04:25:16;95092.13;;;15.91;100.00
51083;BME280;37131;42.694;23.350;2023-06-10T04:27:42;95091.63;;;16.00;100.00
51083;BME280;37131;42.694;23.350;2023-06-10T04:30:08;95093.75;;;16.08;100.00
51083;BME280;37131;42.694;23.350;2023-06-10T04:32:34;95094.50;;;16.03;100.00
51083;BME280;37131;42.694;23.350;2023-06-10T04:34:59;95086.38;;;16.10;100.00
51083;BME280;37131;42.694;23.350;2023-06-10T04:37:24;95082.16;;;16.09;100.00
51083;BME280;37131;42.694;23.350;2023-06-10T04:39:50;95085.88;;;16.08;100.00
51083;BME280;37131;42.694;23.350;2023-06-10T04:42:15;95088.22;;;16.04;100.00
51083;BME280;37131;42.694;23.350;2023-06-10T04:44:40;95085.34;;;16.01;100.00
51083;BME280;37131;42.694;23.350;2023-06-10T04:47:06;95084.25;;;16.02;100.00
51083;BME280;37131;42.694;23.350;2023-06-10T04:49:33;95085.84;;;16.03;100.00
51083;BME280;37131;42.694;23.350;2023-06-10T04:51:58;95081.38;;;16.08;100.00
51083;BME280;37131;42.694;23.350;2023-06-10T04:54:24;95078.25;;;16.17;100.00
51083;BME280;37131;42.694;23.350;2023-06-10T04:56:50;95072.97;;;16.22;100.00
51083;BME280;37131;42.694;23.350;2023-06-10T04:59:15;95080.59;;;16.28;100.00
51083;BME280;37131;42.694;23.350;2023-06-10T05:01:40;95081.38;;;16.29;100.00
51083;BME280;37131;42.694;23.350;2023-06-10T05:04:06;95077.44;;;16.37;100.00
51083;BME280;37131;42.694;23.350;2023-06-10T05:06:31;95074.28;;;16.40;100.00
51083;BME280;37131;42.694;23.350;2023-06-10T05:08:56;95075.34;;;16.39;100.00
51083;BME280;37131;42.694;23.350;2023-06-10T05:11:21;95076.38;;;16.43;100.00
51083;BME280;37131;42.694;23.350;2023-06-10T05:13:47;95072.69;;;16.49;100.00
51083;BME280;37131;42.694;23.350;2023-06-10T05:16:12;95071.88;;;16.64;100.00
51083;BME280;37131;42.694;23.350;2023-06-10T05:18:38;95073.97;;;16.67;100.00
51083;BME280;37131;42.694;23.350;2023-06-10T05:21:03;95068.19;;;16.65;100.00
51083;BME280;37131;42.694;23.350;2023-06-10T05:23:28;95069.75;;;16.76;100.00
51083;BME280;37131;42.694;23.350;2023-06-10T05:25:54;95078.16;;;16.78;100.00
51083;BME280;37131;42.694;23.350;2023-06-10T05:28:19;95080.00;;;16.83;100.00
51083;BME280;37131;42.694;23.350;2023-06-10T05:30:44;95073.16;;;16.92;100.00
51083;BME280;37131;42.694;23.350;2023-06-10T05:33:10;95077.06;;;17.00;100.00
51083;BME280;37131;42.694;23.350;2023-06-10T05:35:35;95083.88;;;17.16;100.00
51083;BME280;37131;42.694;23.350;2023-06-10T05:38:00;95079.91;;;17.19;100.00
51083;BME280;37131;42.694;23.350;2023-06-10T05:40:25;95074.88;;;17.28;100.00
51083;BME280;37131;42.694;23.350;2023-06-10T05:42:51;95076.16;;;17.35;100.00
51083;BME280;37131;42.694;23.350;2023-06-10T05:45:16;95083.47;;;17.49;100.00
51083;BME280;37131;42.694;23.350;2023-06-10T05:47:41;95086.63;;;17.46;100.00
51083;BME280;37131;42.694;23.350;2023-06-10T05:50:07;95074.88;;;17.28;100.00
51083;BME280;37131;42.694;23.350;2023-06-10T05:52:33;95084.31;;;17.39;100.00
51083;BME280;37131;42.694;23.350;2023-06-10T05:54:59;95085.03;;;17.50;100.00
51083;BME280;37131;42.694;23.350;2023-06-10T05:57:24;95072.88;;;17.59;100.00
51083;BME280;37131;42.694;23.350;2023-06-10T05:59:50;95083.06;;;17.76;100.00
51083;BME280;37131;42.694;23.350;2023-06-10T06:02:15;95085.91;;;17.90;100.00
51083;BME280;37131;42.694;23.350;2023-06-10T06:04:40;95095.91;;;17.88;100.00
51083;BME280;37131;42.694;23.350;2023-06-10T06:07:05;95095.16;;;17.82;100.00
51083;BME280;37131;42.694;23.350;2023-06-10T06:09:31;95090.66;;;17.83;100.00
51083;BME280;37131;42.694;23.350;2023-06-10T06:11:56;95089.56;;;17.89;100.00
51083;BME280;37131;42.694;23.350;2023-06-10T06:14:21;95094.59;;;17.85;100.00
51083;BME280;37131;42.694;23.350;2023-06-10T06:16:47;95084.94;;;17.65;100.00
51083;BME280;37131;42.694;23.350;2023-06-10T06:19:12;95084.94;;;17.65;100.00
51083;BME280;37131;42.694;23.350;2023-06-10T06:21:37;95076.47;;;17.74;100.00
51083;BME280;37131;42.694;23.350;2023-06-10T06:24:02;95084.81;;;17.86;100.00
51083;BME280;37131;42.694;23.350;2023-06-10T06:26:28;95079.28;;;17.87;100.00
51083;BME280;37131;42.694;23.350;2023-06-10T06:28:53;95096.34;;;18.05;100.00
51083;BME280;37131;42.694;23.350;2023-06-10T06:31:18;95100.19;;;18.23;100.00
51083;BME280;37131;42.694;23.350;2023-06-10T06:33:43;95088.88;;;18.13;100.00
51083;BME280;37131;42.694;23.350;2023-06-10T06:36:09;95087.47;;;18.26;100.00
51083;BME280;37131;42.694;23.350;2023-06-10T06:38:34;95093.78;;;18.30;100.00
51083;BME280;37131;42.694;23.350;2023-06-10T06:40:59;95080.69;;;18.49;100.00
51083;BME280;37131;42.694;23.350;2023-06-10T06:43:28;95082.13;;;18.65;100.00
51083;BME280;37131;42.694;23.350;2023-06-10T06:45:53;95081.28;;;18.70;100.00
51083;BME280;37131;42.694;23.350;2023-06-10T06:48:18;95078.44;;;18.66;100.00
51083;BME280;37131;42.694;23.350;2023-06-10T06:50:44;95071.78;;;18.69;100.00
51083;BME280;37131;42.694;23.350;2023-06-10T06:53:09;95075.25;;;18.64;100.00
51083;BME280;37131;42.694;23.350;2023-06-10T06:55:34;95078.16;;;18.68;100.00
51083;BME280;37131;42.694;23.350;2023-06-10T06:57:59;95069.56;;;18.81;100.00
51083;BME280;37131;42.694;23.350;2023-06-10T07:00:27;95079.59;;;18.79;100.00
51083;BME280;37131;42.694;23.350;2023-06-10T07:02:53;95075.34;;;18.88;100.00
51083;BME280;37131;42.694;23.350;2023-06-10T07:05:18;95064.94;;;18.97;100.00
51083;BME280;37131;42.694;23.350;2023-06-10T07:07:43;95068.13;;;18.94;97.92
51083;BME280;37131;42.694;23.350;2023-06-10T07:10:09;95072.25;;;18.76;96.68
51083;BME280;37131;42.694;23.350;2023-06-10T07:12:34;95071.41;;;18.81;94.96
51083;BME280;37131;42.694;23.350;2023-06-10T07:14:59;95078.19;;;18.92;94.18
51083;BME280;37131;42.694;23.350;2023-06-10T07:17:25;95072.28;;;19.00;92.87
51083;BME280;37131;42.694;23.350;2023-06-10T07:19:51;95067.81;;;18.71;94.28
51083;BME280;37131;42.694;23.350;2023-06-10T07:22:17;95065.69;;;18.73;93.49
51083;BME280;37131;42.694;23.350;2023-06-10T07:24:42;95061.97;;;18.74;94.68
51083;BME280;37131;42.694;23.350;2023-06-10T07:27:08;95066.03;;;18.91;89.64
51083;BME280;37131;42.694;23.350;2023-06-10T07:29:33;95067.13;;;18.85;84.97
51083;BME280;37131;42.694;23.350;2023-06-10T07:32:00;95066.09;;;18.86;84.66
51083;BME280;37131;42.694;23.350;2023-06-10T07:34:26;95059.66;;;18.97;86.25
51083;BME280;37131;42.694;23.350;2023-06-10T07:36:51;95068.72;;;19.10;75.92
51083;BME280;37131;42.694;23.350;2023-06-10T07:39:16;95066.63;;;19.12;75.21
51083;BME280;37131;42.694;23.350;2023-06-10T07:41:41;95068.38;;;19.41;73.98
51083;BME280;37131;42.694;23.350;2023-06-10T07:44:07;95067.88;;;19.58;74.52
51083;BME280;37131;42.694;23.350;2023-06-10T07:46:32;95066.44;;;19.46;74.32
51083;BME280;37131;42.694;23.350;2023-06-10T07:48:57;95065.22;;;19.39;76.24
51083;BME280;37131;42.694;23.350;2023-06-10T07:51:22;95062.75;;;19.48;75.95
51083;BME280;37131;42.694;23.350;2023-06-10T07:53:48;95058.56;;;19.60;74.80
51083;BME280;37131;42.694;23.350;2023-06-10T07:56:13;95063.59;;;19.62;74.14
51083;BME280;37131;42.694;23.350;2023-06-10T07:58:38;95058.44;;;19.71;75.27
51083;BME280;37131;42.694;23.350;2023-06-10T08:01:03;95061.53;;;19.78;75.04
51083;BME280;37131;42.694;23.350;2023-06-10T08:03:29;95055.75;;;19.95;73.91
51083;BME280;37131;42.694;23.350;2023-06-10T08:05:54;95052.94;;;20.05;73.80
51083;BME280;37131;42.694;23.350;2023-06-10T08:08:19;95051.84;;;20.06;71.60
51083;BME280;37131;42.694;23.350;2023-06-10T08:10:45;95051.91;;;20.20;70.09
51083;BME280;37131;42.694;23.350;2023-06-10T08:13:10;95053.63;;;20.30;70.45
51083;BME280;37131;42.694;23.350;2023-06-10T08:15:35;95052.88;;;20.43;70.76
51083;BME280;37131;42.694;23.350;2023-06-10T08:18:01;95037.00;;;20.57;69.96
51083;BME280;37131;42.694;23.350;2023-06-10T08:20:26;95039.88;;;20.75;66.97
51083;BME280;37131;42.694;23.350;2023-06-10T08:22:51;95040.97;;;20.88;68.33
51083;BME280;37131;42.694;23.350;2023-06-10T08:25:17;95034.00;;;21.06;67.73
51083;BME280;37131;42.694;23.350;2023-06-10T08:27:42;95035.16;;;21.13;66.20
51083;BME280;37131;42.694;23.350;2023-06-10T08:30:07;95028.00;;;21.14;64.91
51083;BME280;37131;42.694;23.350;2023-06-10T08:32:35;95027.91;;;21.19;61.78
51083;BME280;37131;42.694;23.350;2023-06-10T08:35:00;95029.44;;;21.34;61.64
51083;BME280;37131;42.694;23.350;2023-06-10T08:37:25;95029.31;;;21.39;61.58
51083;BME280;37131;42.694;23.350;2023-06-10T08:39:50;95023.28;;;21.25;61.01
51083;BME280;37131;42.694;23.350;2023-06-10T08:42:23;95020.59;;;21.38;61.49
51083;BME280;37131;42.694;23.350;2023-06-10T08:44:52;95016.84;;;21.53;61.36
51083;BME280;37131;42.694;23.350;2023-06-10T08:47:19;95017.00;;;21.71;60.11
51083;BME280;37131;42.694;23.350;2023-06-10T08:49:45;95010.84;;;21.84;60.68
51083;BME280;37131;42.694;23.350;2023-06-10T08:52:14;95005.50;;;21.98;59.95
51083;BME280;37131;42.694;23.350;2023-06-10T08:54:40;95004.69;;;21.98;60.94
51083;BME280;37131;42.694;23.350;2023-06-10T08:57:07;95004.44;;;22.08;57.23
51083;BME280;37131;42.694;23.350;2023-06-10T08:59:32;95002.03;;;21.98;58.26
51083;BME280;37131;42.694;23.350;2023-06-10T09:01:58;95004.72;;;21.75;56.73
51083;BME280;37131;42.694;23.350;2023-06-10T09:04:26;94994.91;;;22.07;58.87
51083;BME280;37131;42.694;23.350;2023-06-10T09:06:52;94995.97;;;22.29;58.75
51083;BME280;37131;42.694;23.350;2023-06-10T09:09:17;94994.38;;;22.41;54.29
51083;BME280;37131;42.694;23.350;2023-06-10T09:11:44;94998.88;;;22.41;54.60
51083;BME280;37131;42.694;23.350;2023-06-10T09:14:10;94990.97;;;22.58;54.04
51083;BME280;37131;42.694;23.350;2023-06-10T09:16:37;94984.16;;;22.75;56.13
51083;BME280;37131;42.694;23.350;2023-06-10T09:19:02;94986.03;;;22.74;54.92
51083;BME280;37131;42.694;23.350;2023-06-10T09:21:32;94985.31;;;22.83;55.02
51083;BME280;37131;42.694;23.350;2023-06-10T09:23:58;94994.22;;;22.95;56.31
51083;BME280;37131;42.694;23.350;2023-06-10T09:26:26;94982.38;;;23.02;55.31
51083;BME280;37131;42.694;23.350;2023-06-10T09:28:52;94983.22;;;23.20;55.43
51083;BME280;37131;42.694;23.350;2023-06-10T09:31:22;94978.66;;;23.11;54.08
51083;BME280;37131;42.694;23.350;2023-06-10T09:33:48;94982.06;;;23.03;52.87
51083;BME280;37131;42.694;23.350;2023-06-10T09:36:21;94981.13;;;23.08;52.41
51083;BME280;37131;42.694;23.350;2023-06-10T09:38:46;94984.94;;;23.16;53.56
51083;BME280;37131;42.694;23.350;2023-06-10T09:41:14;94979.72;;;22.53;53.64
51083;BME280;37131;42.694;23.350;2023-06-10T09:43:41;94974.06;;;22.86;54.05
51083;BME280;37131;42.694;23.350;2023-06-10T09:46:06;94973.88;;;22.82;53.68
51083;BME280;37131;42.694;23.350;2023-06-10T09:48:35;94973.28;;;23.03;50.83
51083;BME280;37131;42.694;23.350;2023-06-10T09:51:01;94966.78;;;23.26;49.70
51083;BME280;37131;42.694;23.350;2023-06-10T09:53:26;94969.94;;;23.28;50.87
51083;BME280;37131;42.694;23.350;2023-06-10T09:55:51;94974.00;;;23.43;49.43
51083;BME280;37131;42.694;23.350;2023-06-10T09:58:17;94965.22;;;23.43;50.41
51083;BME280;37131;42.694;23.350;2023-06-10T10:00:42;94958.06;;;23.43;50.70
51083;BME280;37131;42.694;23.350;2023-06-10T10:03:07;94959.75;;;23.39;53.26
51083;BME280;37131;42.694;23.350;2023-06-10T10:05:32;94955.69;;;23.33;53.88
51083;BME280;37131;42.694;23.350;2023-06-10T10:07:58;94951.16;;;23.34;52.28
51083;BME280;37131;42.694;23.350;2023-06-10T10:10:23;94953.81;;;23.51;52.58
51083;BME280;37131;42.694;23.350;2023-06-10T10:12:50;94944.13;;;23.55;52.29
51083;BME280;37131;42.694;23.350;2023-06-10T10:15:17;94941.56;;;23.85;53.49
51083;BME280;37131;42.694;23.350;2023-06-10T10:18:04;94936.06;;;24.08;51.76
51083;BME280;37131;42.694;23.350;2023-06-10T10:20:31;94936.66;;;24.22;50.65
51083;BME280;37131;42.694;23.350;2023-06-10T10:22:58;94923.91;;;24.37;50.92
51083;BME280;37131;42.694;23.350;2023-06-10T10:25:28;94935.91;;;24.51;49.74
51083;BME280;37131;42.694;23.350;2023-06-10T10:27:56;94929.31;;;24.10;49.34
51083;BME280;37131;42.694;23.350;2023-06-10T10:30:22;94930.91;;;24.03;50.58
51083;BME280;37131;42.694;23.350;2023-06-10T10:32:58;94929.22;;;23.80;50.87
51083;BME280;37131;42.694;23.350;2023-06-10T10:35:26;94927.97;;;23.69;50.40
51083;BME280;37131;42.694;23.350;2023-06-10T10:37:52;94928.94;;;23.38;50.81
51083;BME280;37131;42.694;23.350;2023-06-10T10:40:18;94930.34;;;23.27;50.99
51083;BME280;37131;42.694;23.350;2023-06-10T10:42:44;94927.84;;;23.39;50.47
51083;BME280;37131;42.694;23.350;2023-06-10T10:45:09;94923.16;;;23.27;49.30
51083;BME280;37131;42.694;23.350;2023-06-10T10:47:35;94924.69;;;23.55;49.36
51083;BME280;37131;42.694;23.350;2023-06-10T10:50:01;94919.38;;;23.63;48.57
51083;BME280;37131;42.694;23.350;2023-06-10T10:55:25;94912.63;;;23.92;48.81
51083;BME280;37131;42.694;23.350;2023-06-10T11:01:05;94906.03;;;23.98;49.81
51083;BME280;37131;42.694;23.350;2023-06-10T11:03:14;94909.19;;;23.74;50.23
51083;BME280;37131;42.694;23.350;2023-06-10T11:05:45;94909.19;;;23.74;51.37
51083;BME280;37131;42.694;23.350;2023-06-10T11:08:14;94900.06;;;23.84;50.97
51083;BME280;37131;42.694;23.350;2023-06-10T11:10:40;94891.63;;;23.82;50.75
51083;BME280;37131;42.694;23.350;2023-06-10T11:13:07;94888.09;;;24.16;50.29
51083;BME280;37131;42.694;23.350;2023-06-10T11:15:33;94885.75;;;24.15;49.50
51083;BME280;37131;42.694;23.350;2023-06-10T11:18:09;94878.25;;;24.17;50.00
51083;BME280;37131;42.694;23.350;2023-06-10T11:20:43;94875.97;;;23.98;49.14
51083;BME280;37131;42.694;23.350;2023-06-10T11:23:09;94866.38;;;24.06;50.70
51083;BME280;37131;42.694;23.350;2023-06-10T11:25:40;94867.75;;;24.12;50.24
51083;BME280;37131;42.694;23.350;2023-06-10T11:28:18;94868.44;;;23.82;50.26
51083;BME280;37131;42.694;23.350;2023-06-10T11:30:44;94866.09;;;23.90;51.35
51083;BME280;37131;42.694;23.350;2023-06-10T11:33:09;94862.59;;;23.51;49.49
51083;BME280;37131;42.694;23.350;2023-06-10T11:35:39;94865.69;;;23.61;49.38
51083;BME280;37131;42.694;23.350;2023-06-10T11:38:05;94860.66;;;23.69;47.61
51083;BME280;37131;42.694;23.350;2023-06-10T11:40:30;94858.09;;;23.98;48.11
51083;BME280;37131;42.694;23.350;2023-06-10T11:42:55;94851.84;;;23.94;44.22
51083;BME280;37131;42.694;23.350;2023-06-10T11:45:21;94852.78;;;23.90;43.94
51083;BME280;37131;42.694;23.350;2023-06-10T11:47:58;94849.34;;;23.98;45.75
51083;BME280;37131;42.694;23.350;2023-06-10T11:50:31;94855.59;;;24.02;47.24
51083;BME280;37131;42.694;23.350;2023-06-10T11:52:56;94850.34;;;23.67;45.04
51083;BME280;37131;42.694;23.350;2023-06-10T11:55:23;94854.19;;;23.96;40.76
51083;BME280;37131;42.694;23.350;2023-06-10T11:57:48;94843.84;;;23.94;43.68
51083;BME280;37131;42.694;23.350;2023-06-10T12:00:17;94845.47;;;24.16;40.76
51083;BME280;37131;42.694;23.350;2023-06-10T12:02:42;94849.47;;;24.31;41.86
51083;BME280;37131;42.694;23.350;2023-06-10T12:05:11;94841.13;;;24.42;42.30
51083;BME280;37131;42.694;23.350;2023-06-10T12:07:37;94832.59;;;24.57;40.90
51083;BME280;37131;42.694;23.350;2023-06-10T12:10:02;94834.84;;;24.97;40.53
51083;BME280;37131;42.694;23.350;2023-06-10T12:12:27;94835.16;;;24.96;38.39
51083;BME280;37131;42.694;23.350;2023-06-10T12:14:57;94830.16;;;24.94;39.44
51083;BME280;37131;42.694;23.350;2023-06-10T12:19:57;94830.19;;;25.07;38.89
51083;BME280;37131;42.694;23.350;2023-06-10T12:22:22;94831.19;;;25.02;38.67
51083;BME280;37131;42.694;23.350;2023-06-10T12:24:58;94834.56;;;24.90;38.26
51083;BME280;37131;42.694;23.350;2023-06-10T12:27:26;94830.59;;;24.96;38.56
51083;BME280;37131;42.694;23.350;2023-06-10T12:29:53;94825.41;;;24.79;37.71
51083;BME280;37131;42.694;23.350;2023-06-10T12:32:18;94827.63;;;24.77;36.78
51083;BME280;37131;42.694;23.350;2023-06-10T12:34:45;94825.59;;;24.74;38.36
51083;BME280;37131;42.694;23.350;2023-06-10T12:37:11;94822.59;;;24.75;39.06
51083;BME280;37131;42.694;23.350;2023-06-10T12:39:39;94812.97;;;24.62;38.67
51083;BME280;37131;42.694;23.350;2023-06-10T12:42:05;94817.28;;;24.75;39.97
51083;BME280;37131;42.694;23.350;2023-06-10T12:44:35;94817.47;;;24.70;40.06
51083;BME280;37131;42.694;23.350;2023-06-10T12:47:09;94807.38;;;24.76;39.96
51083;BME280;37131;42.694;23.350;2023-06-10T12:49:37;94809.34;;;24.87;38.79
51083;BME280;37131;42.694;23.350;2023-06-10T12:52:03;94807.31;;;24.84;40.26
51083;BME280;37131;42.694;23.350;2023-06-10T12:54:29;94809.53;;;24.61;39.47